Time;durP1;ratioP1;P1;durP2;ratioP2;P2;SDS_P1;SDS_P2;PMS_P1;PMS_P2;Temp;Humidity;BMP_temperature;BMP_pressure;BME280_temperature;BME280_humidity;BME280_pressure;Samples;Min_cycle;Max_cycle;Signal;HPM_P1;HPM_P2
2023/08/08 00:02:00;;;;;;;;;;;;;;;21.51;53.84;101322.94;5065390;28;19913;-62
2023/08/08 00:04:25;;;;;;;;;;;;;;;21.51;53.54;101320.22;5064508;28;19928;-61
2023/08/08 00:06:50;;;;;;;;;;;;;;;21.51;53.59;101320.22;5064792;28;20055;-62
2023/08/08 00:09:16;;;;;;;;;;;;;;;21.50;53.62;101315.84;5064698;28;19962;-61
2023/08/08 00:11:41;;;;;;;;;;;;;;;21.50;53.76;101312.28;5064974;28;19912;-61
2023/08/08 00:14:07;;;;;;;;;;;;;;;21.49;53.57;101316.84;5064967;28;19913;-61
2023/08/08 00:16:32;;;;;;;;;;;;;;;21.48;53.55;101312.44;5064436;28;20366;-62
2023/08/08 00:18:57;;;;;;;;;;;;;;;21.49;53.66;101307.88;5064977;28;19921;-61
2023/08/08 00:21:22;;;;;;;;;;;;;;;21.48;53.64;101308.91;5064265;28;20050;-61
2023/08/08 00:23:47;;;;;;;;;;;;;;;21.48;53.77;101306.19;5063919;28;19920;-61
2023/08/08 00:26:13;;;;;;;;;;;;;;;21.47;53.67;101305.34;5064692;28;20015;-61
2023/08/08 00:28:38;;;;;;;;;;;;;;;21.46;53.79;101304.53;5063484;28;19966;-61
2023/08/08 00:31:03;;;;;;;;;;;;;;;21.46;53.72;101300.97;5064841;28;19912;-61
2023/08/08 00:33:29;;;;;;;;;;;;;;;21.45;53.66;101300.13;5097142;28;19921;-60
2023/08/08 00:35:54;;;;;;;;;;;;;;;21.45;53.63;101308.25;5063613;28;19966;-61
2023/08/08 00:38:19;;;;;;;;;;;;;;;21.45;53.61;101301.97;5063949;28;20297;-61
2023/08/08 00:40:44;;;;;;;;;;;;;;;21.43;53.62;101291.34;5064620;28;20483;-62
2023/08/08 00:43:09;;;;;;;;;;;;;;;21.43;53.53;101296.75;5064374;28;20306;-61
2023/08/08 00:45:35;;;;;;;;;;;;;;;21.43;53.64;101299.44;5063871;28;19913;-61
2023/08/08 00:48:00;;;;;;;;;;;;;;;21.42;53.58;101297.78;5096868;28;19967;-60
2023/08/08 00:50:25;;;;;;;;;;;;;;;21.42;53.49;101295.06;5096816;28;19916;-62
2023/08/08 00:52:50;;;;;;;;;;;;;;;21.42;53.87;101296.94;5063454;28;19958;-61
2023/08/08 00:55:16;;;;;;;;;;;;;;;21.41;53.48;101296.09;5064506;28;20023;-62
2023/08/08 00:57:41;;;;;;;;;;;;;;;21.41;53.46;101287.13;5063852;28;19970;-61
2023/08/08 01:00:08;;;;;;;;;;;;;;;21.40;53.54;101299.78;5064367;28;19923;-61
2023/08/08 01:02:33;;;;;;;;;;;;;;;21.40;53.79;101294.38;5064227;28;19912;-61
2023/08/08 01:04:58;;;;;;;;;;;;;;;21.40;53.87;101291.69;5063805;28;19921;-61
2023/08/08 01:07:24;;;;;;;;;;;;;;;21.39;53.72;101281.88;5061966;28;19923;-61
2023/08/08 01:09:52;;;;;;;;;;;;;;;21.39;53.66;101281.03;5064190;28;19917;-62
2023/08/08 01:12:18;;;;;;;;;;;;;;;21.38;53.67;101272.09;5063998;28;19913;-62
2023/08/08 01:14:43;;;;;;;;;;;;;;;21.38;53.67;101269.38;5096403;28;19920;-61
2023/08/08 01:17:08;;;;;;;;;;;;;;;21.37;53.64;101273.13;5063512;28;19920;-61
2023/08/08 01:19:34;;;;;;;;;;;;;;;21.37;53.52;101273.13;5063947;28;19913;-62
2023/08/08 01:22:04;;;;;;;;;;;;;;;21.37;53.47;101266.88;5095722;28;20425;-61
2023/08/08 01:24:30;;;;;;;;;;;;;;;21.36;53.49;101268.69;5063521;28;20020;-61
2023/08/08 01:27:01;;;;;;;;;;;;;;;21.36;53.85;101263.28;5096282;28;20003;-61
2023/08/08 01:29:27;;;;;;;;;;;;;;;21.35;53.73;101263.47;5061708;28;20003;-61
2023/08/08 01:31:52;;;;;;;;;;;;;;;21.35;53.57;101260.78;5063764;28;19929;-61
2023/08/08 01:34:17;;;;;;;;;;;;;;;21.34;53.62;101259.94;5063438;28;20069;-59
2023/08/08 01:37:01;;;;;;;;;;;;;;;21.35;53.80;101268.88;5063642;28;19939;-61
2023/08/08 01:39:27;;;;;;;;;;;;;;;21.33;53.62;101265.53;5063493;28;19920;-61
2023/08/08 01:41:55;;;;;;;;;;;;;;;21.33;53.54;101271.78;5062507;28;19913;-62
2023/08/08 01:44:21;;;;;;;;;;;;;;;21.33;53.87;101269.06;5062284;28;19927;-61
2023/08/08 01:46:47;;;;;;;;;;;;;;;21.33;53.57;101271.78;5062330;28;20285;-61
2023/08/08 01:49:12;;;;;;;;;;;;;;;21.31;53.71;101271.06;5063223;28;19913;-62
2023/08/08 01:51:37;;;;;;;;;;;;;;;21.32;53.90;101266.53;5063432;28;19913;-62
2023/08/08 01:54:02;;;;;;;;;;;;;;;21.32;53.70;101266.53;5063183;28;20054;-62
2023/08/08 01:56:28;;;;;;;;;;;;;;;21.31;53.80;101262.94;5064179;28;20374;-61
2023/08/08 01:58:53;;;;;;;;;;;;;;;21.30;53.57;101255.88;5067052;28;20293;-61
2023/08/08 02:01:18;;;;;;;;;;;;;;;21.30;53.64;101258.56;5067233;28;19919;-61
2023/08/08 02:03:43;;;;;;;;;;;;;;;21.30;53.81;101252.31;5065130;28;20011;-62
2023/08/08 02:06:09;;;;;;;;;;;;;;;21.30;53.65;101258.56;5066621;28;19917;-61
2023/08/08 02:08:34;;;;;;;;;;;;;;;21.29;54.08;101250.66;5066572;28;20328;-62
2023/08/08 02:10:59;;;;;;;;;;;;;;;21.28;53.60;101244.41;5067240;28;19982;-61
2023/08/08 02:13:24;;;;;;;;;;;;;;;21.29;53.59;101250.66;5067145;28;19916;-62
2023/08/08 02:15:49;;;;;;;;;;;;;;;21.27;53.90;101245.38;5066693;28;20320;-62
2023/08/08 02:18:15;;;;;;;;;;;;;;;21.28;53.89;101244.41;5066842;28;19917;-60
2023/08/08 02:20:40;;;;;;;;;;;;;;;21.28;53.63;101243.53;5065513;28;19987;-61
2023/08/08 02:23:05;;;;;;;;;;;;;;;21.27;53.55;101236.44;5066716;28;19940;-61
2023/08/08 02:25:30;;;;;;;;;;;;;;;21.26;53.87;101235.59;5067052;28;19913;-62
2023/08/08 02:27:56;;;;;;;;;;;;;;;21.26;53.94;101232.91;5066806;28;20379;-61
2023/08/08 02:30:21;;;;;;;;;;;;;;;21.26;53.60;101234.75;5066949;28;19942;-63
2023/08/08 02:32:46;;;;;;;;;;;;;;;21.25;53.74;101236.63;5066500;28;19976;-62
2023/08/08 02:35:11;;;;;;;;;;;;;;;21.25;53.74;101233.09;5098694;28;19979;-61
2023/08/08 02:37:37;;;;;;;;;;;;;;;21.24;53.76;101232.25;5066270;28;19987;-62
2023/08/08 02:40:02;;;;;;;;;;;;;;;21.24;53.75;101229.53;5066757;28;20350;-62
2023/08/08 02:42:28;;;;;;;;;;;;;;;21.23;53.87;101225.97;5099148;28;19917;-62
2023/08/08 02:44:53;;;;;;;;;;;;;;;21.23;53.96;101222.41;5066909;28;19952;-62
2023/08/08 02:47:18;;;;;;;;;;;;;;;21.22;53.78;101215.34;5066265;28;19992;-62
2023/08/08 02:49:43;;;;;;;;;;;;;;;21.22;53.70;101218.03;5066628;28;19980;-62
2023/08/08 02:52:08;;;;;;;;;;;;;;;21.21;53.96;101214.50;5066577;28;20143;-61
2023/08/08 02:54:34;;;;;;;;;;;;;;;21.21;53.82;101217.19;5066060;28;19920;-62
2023/08/08 02:56:59;;;;;;;;;;;;;;;21.21;53.84;101217.19;5066245;28;19972;-61
2023/08/08 02:59:24;;;;;;;;;;;;;;;21.20;53.82;101215.53;5066466;28;19923;-61
2023/08/08 03:01:49;;;;;;;;;;;;;;;21.21;53.83;101213.66;5066576;28;19955;-62
2023/08/08 03:04:15;;;;;;;;;;;;;;;21.20;53.81;101218.22;5065930;28;19980;-61
2023/08/08 03:06:40;;;;;;;;;;;;;;;21.19;53.91;101213.81;5066027;28;19972;-61
2023/08/08 03:09:05;;;;;;;;;;;;;;;21.19;53.92;101211.09;5065508;28;20276;-62
2023/08/08 03:11:30;;;;;;;;;;;;;;;21.18;53.68;101204.03;5066363;28;20510;-62
2023/08/08 03:13:55;;;;;;;;;;;;;;;21.17;53.76;101207.75;5065800;28;20416;-61
2023/08/08 03:16:21;;;;;;;;;;;;;;;21.18;54.00;101212.13;5065883;28;19923;-61
2023/08/08 03:18:46;;;;;;;;;;;;;;;21.18;53.72;101206.72;5066090;28;20300;-59
2023/08/08 03:21:11;;;;;;;;;;;;;;;21.16;53.94;101200.66;5065655;28;20570;-61
2023/08/08 03:23:36;;;;;;;;;;;;;;;21.16;53.87;101199.84;5065549;28;20082;-61
2023/08/08 03:26:01;;;;;;;;;;;;;;;21.16;53.99;101200.66;5066150;28;20024;-61
2023/08/08 03:28:27;;;;;;;;;;;;;;;21.15;53.90;101196.28;5065750;28;20444;-61
2023/08/08 03:30:52;;;;;;;;;;;;;;;21.16;53.87;101202.53;5065688;28;19939;-62
2023/08/08 03:33:17;;;;;;;;;;;;;;;21.15;53.88;101195.41;5065867;28;20011;-62
2023/08/08 03:35:43;;;;;;;;;;;;;;;21.14;54.05;101205.41;5063308;28;19974;-62
2023/08/08 03:38:08;;;;;;;;;;;;;;;21.14;53.68;101204.56;5064538;28;20294;-61
2023/08/08 03:40:33;;;;;;;;;;;;;;;21.14;53.60;101202.69;5065537;28;19923;-61
2023/08/08 03:42:59;;;;;;;;;;;;;;;21.14;53.70;101201.84;5065355;28;20013;-62
2023/08/08 03:45:24;;;;;;;;;;;;;;;21.12;53.57;101193.94;5064793;28;20266;-58
2023/08/08 03:47:49;;;;;;;;;;;;;;;21.13;53.89;101197.47;5080702;28;19921;-61
2023/08/08 03:50:14;;;;;;;;;;;;;;;21.11;53.67;101186.84;5065438;28;19923;-61
2023/08/08 03:52:40;;;;;;;;;;;;;;;21.11;53.78;101194.94;5064074;28;19912;-61
2023/08/08 03:55:05;;;;;;;;;;;;;;;21.11;53.64;101185.97;5065630;28;19969;-60
2023/08/08 03:57:30;;;;;;;;;;;;;;;21.11;53.87;101185.97;5065113;28;19917;-61
2023/08/08 03:59:55;;;;;;;;;;;;;;;21.10;53.82;101190.53;5097318;28;19916;-61
2023/08/08 04:02:21;;;;;;;;;;;;;;;21.10;53.88;101181.59;5064680;28;20382;-61
2023/08/08 04:04:46;;;;;;;;;;;;;;;21.10;54.03;101187.84;5064882;28;20366;-61
2023/08/08 04:07:11;;;;;;;;;;;;;;;21.09;54.01;101183.47;5064450;28;20274;-61
2023/08/08 04:09:36;;;;;;;;;;;;;;;21.08;54.05;101181.78;5062819;28;19917;-60
2023/08/08 04:12:02;;;;;;;;;;;;;;;21.09;54.14;101179.91;5062489;28;19913;-60
2023/08/08 04:14:27;;;;;;;;;;;;;;;21.08;54.09;101173.66;5063357;28;20321;-60
2023/08/08 04:16:52;;;;;;;;;;;;;;;21.09;54.14;101171.81;5064467;28;19912;-60
2023/08/08 04:19:17;;;;;;;;;;;;;;;21.08;54.30;101162.84;5062293;28;19920;-60
2023/08/08 04:21:42;;;;;;;;;;;;;;;21.08;54.55;101170.97;5064332;28;19921;-60
2023/08/08 04:24:08;;;;;;;;;;;;;;;21.09;54.49;101171.81;5063975;28;19986;-60
2023/08/08 04:26:33;;;;;;;;;;;;;;;21.09;54.81;101169.94;5064508;28;20012;-60
2023/08/08 04:28:58;;;;;;;;;;;;;;;21.10;54.74;101171.63;5064578;28;20011;-60
2023/08/08 04:31:26;;;;;;;;;;;;;;;21.09;54.65;101167.22;5063793;28;19952;-60
2023/08/08 04:33:58;;;;;;;;;;;;;;;21.10;54.58;101170.78;5064238;28;19916;-60
2023/08/08 04:36:23;;;;;;;;;;;;;;;21.09;55.01;101164.53;5063541;28;19923;-59
2023/08/08 04:38:48;;;;;;;;;;;;;;;21.09;54.67;101172.66;5063561;28;19913;-59
2023/08/08 04:41:13;;;;;;;;;;;;;;;21.09;55.07;101175.34;5064010;28;19961;-60
2023/08/08 04:43:38;;;;;;;;;;;;;;;21.09;54.76;101175.34;5061074;28;20055;-60
2023/08/08 04:46:04;;;;;;;;;;;;;;;21.09;54.78;101169.09;5063614;28;19916;-60
2023/08/08 04:48:29;;;;;;;;;;;;;;;21.09;54.92;101171.81;5064568;28;19920;-60
2023/08/08 04:50:54;;;;;;;;;;;;;;;21.08;54.98;101173.66;5063528;28;19923;-60
2023/08/08 04:53:19;;;;;;;;;;;;;;;21.09;55.08;101169.09;5063146;28;19981;-60
2023/08/08 04:55:45;;;;;;;;;;;;;;;21.09;54.98;101166.41;5064172;28;19912;-60
2023/08/08 04:58:10;;;;;;;;;;;;;;;21.08;54.88;101164.72;5062887;28;19913;-60
2023/08/08 05:00:36;;;;;;;;;;;;;;;21.08;55.17;101168.25;5063955;28;19919;-60
2023/08/08 05:03:01;;;;;;;;;;;;;;;21.08;55.18;101159.31;5063284;28;19917;-60
2023/08/08 05:05:26;;;;;;;;;;;;;;;21.07;55.25;101166.59;5056179;28;19921;-60
2023/08/08 05:07:51;;;;;;;;;;;;;;;21.08;55.19;101165.56;5057079;28;20689;-60
2023/08/08 05:10:17;;;;;;;;;;;;;;;21.07;54.83;101165.72;5095365;28;19916;-60
2023/08/08 05:12:42;;;;;;;;;;;;;;;21.07;55.14;101161.19;5063473;28;19916;-60
2023/08/08 05:15:07;;;;;;;;;;;;;;;21.07;54.93;101161.19;5063809;28;19920;-60
2023/08/08 05:17:33;;;;;;;;;;;;;;;21.07;54.84;101171.13;5061770;28;19919;-60
2023/08/08 05:19:58;;;;;;;;;;;;;;;21.08;55.06;101162.00;5096014;28;19920;-60
2023/08/08 05:22:23;;;;;;;;;;;;;;;21.06;55.06;101166.75;5063473;28;20011;-60
2023/08/08 05:24:48;;;;;;;;;;;;;;;21.07;54.69;101172.00;5063188;28;19924;-60
2023/08/08 05:27:13;;;;;;;;;;;;;;;21.06;54.85;101164.03;5063426;28;19913;-60
2023/08/08 05:29:40;;;;;;;;;;;;;;;21.05;54.84;101170.47;5063714;28;19924;-60
2023/08/08 05:32:06;;;;;;;;;;;;;;;21.05;54.83;101165.91;5065039;28;19912;-61
2023/08/08 05:34:32;;;;;;;;;;;;;;;21.04;54.95;101166.94;5067464;28;19919;-61
2023/08/08 05:36:57;;;;;;;;;;;;;;;21.03;54.68;101161.72;5066756;28;19956;-61
2023/08/08 05:39:22;;;;;;;;;;;;;;;21.03;54.73;101167.97;5067717;28;19912;-61
2023/08/08 05:41:47;;;;;;;;;;;;;;;21.04;54.78;101172.34;5067227;28;19935;-61
2023/08/08 05:44:13;;;;;;;;;;;;;;;21.05;54.58;101167.75;5067484;28;19918;-61
2023/08/08 05:46:38;;;;;;;;;;;;;;;21.04;54.59;101171.50;5067297;28;19942;-61
2023/08/08 05:49:03;;;;;;;;;;;;;;;21.03;54.58;101173.38;5067257;28;19909;-60
2023/08/08 05:51:28;;;;;;;;;;;;;;;21.04;54.43;101172.34;5067109;28;19913;-60
2023/08/08 05:53:53;;;;;;;;;;;;;;;21.04;54.60;101177.75;5067370;28;19913;-60
2023/08/08 05:56:19;;;;;;;;;;;;;;;21.05;54.73;101178.59;5067662;28;19920;-61
2023/08/08 05:58:44;;;;;;;;;;;;;;;21.04;54.69;101174.19;5066637;28;19924;-61
2023/08/08 06:01:11;;;;;;;;;;;;;;;21.04;54.50;101179.59;5067191;28;19928;-61
2023/08/08 06:03:37;;;;;;;;;;;;;;;21.04;54.52;101179.59;5067317;28;19917;-61
2023/08/08 06:06:03;;;;;;;;;;;;;;;21.05;54.69;101184.00;5066635;28;19979;-61
2023/08/08 06:08:28;;;;;;;;;;;;;;;21.03;54.40;101183.34;5066215;28;19919;-60
2023/08/08 06:10:53;;;;;;;;;;;;;;;21.03;54.45;101184.19;5066668;28;19931;-61
2023/08/08 06:13:18;;;;;;;;;;;;;;;21.04;54.57;101185.84;5066933;28;19913;-60
2023/08/08 06:15:44;;;;;;;;;;;;;;;21.04;54.76;101185.00;5067092;28;20007;-61
2023/08/08 06:18:09;;;;;;;;;;;;;;;21.04;54.43;101179.59;5066600;28;19917;-61
2023/08/08 06:20:34;;;;;;;;;;;;;;;21.04;54.72;101187.72;5066715;28;19921;-61
2023/08/08 06:22:59;;;;;;;;;;;;;;;21.02;54.48;101193.28;5066419;28;19920;-61
2023/08/08 06:25:25;;;;;;;;;;;;;;;21.03;54.71;101192.28;5065487;28;19981;-60
2023/08/08 06:27:50;;;;;;;;;;;;;;;21.03;54.83;101195.00;5066055;28;19951;-58
2023/08/08 06:30:15;;;;;;;;;;;;;;;21.02;54.46;101193.28;5066952;28;19927;-61
2023/08/08 06:32:40;;;;;;;;;;;;;;;21.03;54.61;101196.84;5063675;28;20012;-61
2023/08/08 06:35:06;;;;;;;;;;;;;;;21.04;54.49;101193.97;5066521;28;19919;-61
2023/08/08 06:37:31;;;;;;;;;;;;;;;21.02;54.48;101201.38;5066324;28;19917;-61
2023/08/08 06:39:56;;;;;;;;;;;;;;;21.03;54.68;101196.84;5066023;28;19919;-61
2023/08/08 06:42:21;;;;;;;;;;;;;;;21.03;54.52;101188.75;5065854;28;19913;-61
2023/08/08 06:44:46;;;;;;;;;;;;;;;21.03;54.69;101197.69;5066461;28;19939;-61
2023/08/08 06:47:12;;;;;;;;;;;;;;;21.03;54.63;101194.16;5066148;28;20006;-60
2023/08/08 06:49:37;;;;;;;;;;;;;;;21.02;54.68;101198.69;5066458;28;19917;-61
2023/08/08 06:52:03;;;;;;;;;;;;;;;21.03;54.48;101196.84;5065908;28;19935;-61
2023/08/08 06:54:28;;;;;;;;;;;;;;;21.03;54.55;101202.25;5065331;28;19921;-61
2023/08/08 06:56:54;;;;;;;;;;;;;;;21.03;54.22;101205.81;5066045;28;19917;-61
2023/08/08 06:59:19;;;;;;;;;;;;;;;21.02;54.39;101192.44;5066157;28;19920;-61
2023/08/08 07:01:45;;;;;;;;;;;;;;;21.02;54.51;101193.28;5064355;28;19913;-61
2023/08/08 07:04:10;;;;;;;;;;;;;;;21.02;54.42;101200.56;5065083;28;19916;-61
2023/08/08 07:06:36;;;;;;;;;;;;;;;21.02;54.55;101193.28;5065825;28;20012;-61
2023/08/08 07:09:01;;;;;;;;;;;;;;;21.02;54.21;101198.69;5065393;28;20713;-61
2023/08/08 07:11:27;;;;;;;;;;;;;;;21.03;54.51;101194.16;5065822;28;19917;-60
2023/08/08 07:13:52;;;;;;;;;;;;;;;21.02;54.35;101195.97;5065922;28;19913;-56
2023/08/08 07:16:17;;;;;;;;;;;;;;;21.02;54.32;101190.56;5038667;28;20308;-61
2023/08/08 07:18:42;;;;;;;;;;;;;;;21.02;54.45;101195.97;5066040;28;19917;-61
2023/08/08 07:21:07;;;;;;;;;;;;;;;21.02;54.26;101190.56;5065413;28;20285;-61
2023/08/08 07:23:33;;;;;;;;;;;;;;;21.02;54.10;101182.47;5064508;28;20392;-60
2023/08/08 07:25:58;;;;;;;;;;;;;;;21.02;54.25;101182.47;5065667;28;20376;-61
2023/08/08 07:28:23;;;;;;;;;;;;;;;21.02;54.26;101177.06;5065645;28;20556;-61
2023/08/08 07:30:48;;;;;;;;;;;;;;;21.03;54.21;101178.78;5065236;28;20461;-61
2023/08/08 07:33:13;;;;;;;;;;;;;;;21.03;54.19;101176.06;5065126;28;19916;-61
2023/08/08 07:35:39;;;;;;;;;;;;;;;21.04;54.12;101179.59;5065147;28;19938;-58
2023/08/08 07:38:04;;;;;;;;;;;;;;;21.03;54.20;101172.53;5064543;28;19917;-61
2023/08/08 07:40:29;;;;;;;;;;;;;;;21.02;54.10;101174.34;5065748;28;19917;-60
2023/08/08 07:42:54;;;;;;;;;;;;;;;21.03;54.16;101169.81;5065140;28;19966;-61
2023/08/08 07:45:20;;;;;;;;;;;;;;;21.03;54.22;101161.72;5065258;28;19927;-61
2023/08/08 07:47:45;;;;;;;;;;;;;;;21.03;53.94;101169.81;5064934;28;19923;-60
2023/08/08 07:50:11;;;;;;;;;;;;;;;21.03;53.95;101164.41;5065215;28;19913;-61
2023/08/08 07:52:36;;;;;;;;;;;;;;;21.02;54.09;101178.94;5064998;28;19917;-57
2023/08/08 07:55:03;;;;;;;;;;;;;;;21.02;54.16;101168.94;5063299;28;20373;-60
2023/08/08 07:57:28;;;;;;;;;;;;;;;21.03;53.79;101178.78;5064983;28;19913;-61
2023/08/08 07:59:53;;;;;;;;;;;;;;;21.04;53.98;101168.78;5065349;28;19977;-61
2023/08/08 08:02:19;;;;;;;;;;;;;;;21.03;53.82;101162.56;5064612;28;19912;-61
2023/08/08 08:04:44;;;;;;;;;;;;;;;21.04;54.02;101166.09;5063875;28;19920;-61
2023/08/08 08:07:09;;;;;;;;;;;;;;;21.05;53.71;101168.59;5064922;28;20021;-61
2023/08/08 08:09:34;;;;;;;;;;;;;;;21.05;53.63;101168.59;5064272;28;19974;-60
2023/08/08 08:11:59;;;;;;;;;;;;;;;21.06;54.01;101169.44;5064164;28;19913;-62
2023/08/08 08:14:24;;;;;;;;;;;;;;;21.05;53.91;101181.28;5064740;28;19963;-62
2023/08/08 08:16:50;;;;;;;;;;;;;;;21.06;53.87;101180.25;5064327;28;20427;-61
2023/08/08 08:19:15;;;;;;;;;;;;;;;21.06;53.59;101172.16;5063809;28;20380;-61
2023/08/08 08:21:40;;;;;;;;;;;;;;;21.07;53.90;101168.41;5063754;28;20017;-58
2023/08/08 08:24:06;;;;;;;;;;;;;;;21.08;53.78;101172.81;5063775;28;19920;-61
2023/08/08 08:26:31;;;;;;;;;;;;;;;21.09;53.75;101177.22;5064572;28;20024;-60
2023/08/08 08:28:57;;;;;;;;;;;;;;;21.08;53.69;101173.66;5062773;28;19912;-61
2023/08/08 08:31:22;;;;;;;;;;;;;;;21.09;53.45;101164.53;5064237;28;19920;-60
2023/08/08 08:33:47;;;;;;;;;;;;;;;21.11;53.61;101172.44;5064673;28;19968;-60
2023/08/08 08:36:13;;;;;;;;;;;;;;;21.11;53.50;101172.44;5062206;28;19921;-61
2023/08/08 08:38:38;;;;;;;;;;;;;;;21.12;53.65;101161.47;5063838;28;19920;-62
2023/08/08 08:41:03;;;;;;;;;;;;;;;21.15;53.29;101176.50;5063920;28;19947;-61
2023/08/08 08:43:29;;;;;;;;;;;;;;;21.15;53.50;101160.25;5092112;28;20047;-61
2023/08/08 08:45:55;;;;;;;;;;;;;;;21.15;53.65;101163.84;5095906;28;19913;-61
2023/08/08 08:48:20;;;;;;;;;;;;;;;21.15;53.31;101155.72;5096313;28;20000;-61
2023/08/08 08:50:47;;;;;;;;;;;;;;;21.15;53.34;101153.03;5063219;28;19927;-61
2023/08/08 08:53:12;;;;;;;;;;;;;;;21.16;53.44;101159.28;5063473;28;19916;-61
2023/08/08 08:55:38;;;;;;;;;;;;;;;21.15;53.62;101166.53;5095729;28;19986;-59
2023/08/08 08:58:03;;;;;;;;;;;;;;;21.17;53.35;101163.66;5096119;28;19913;-61
2023/08/08 09:00:28;;;;;;;;;;;;;;;21.17;53.35;101164.50;5063591;28;19913;-56
2023/08/08 09:02:56;;;;;;;;;;;;;;;21.17;53.21;101167.19;5095817;28;19913;-61
2023/08/08 09:05:22;;;;;;;;;;;;;;;21.17;53.59;101169.91;5094807;28;19929;-61
2023/08/08 09:07:47;;;;;;;;;;;;;;;21.18;53.52;101157.22;5060830;28;19976;-61
2023/08/08 09:10:13;;;;;;;;;;;;;;;21.19;53.46;101156.19;5063157;28;19920;-61
2023/08/08 09:12:38;;;;;;;;;;;;;;;21.19;53.64;101161.59;5095451;28;19917;-61
2023/08/08 09:15:04;;;;;;;;;;;;;;;21.19;53.38;101159.72;5095972;28;19921;-60
2023/08/08 09:17:29;;;;;;;;;;;;;;;21.18;53.19;101160.75;5062743;28;19917;-61
2023/08/08 09:20:05;;;;;;;;;;;;;;;21.19;53.50;101169.72;5063360;28;19951;-61
2023/08/08 09:22:30;;;;;;;;;;;;;;;21.19;53.38;101169.72;5063253;28;20284;-61
2023/08/08 09:24:56;;;;;;;;;;;;;;;21.19;53.30;101167.84;5062862;28;19947;-61
2023/08/08 09:27:22;;;;;;;;;;;;;;;21.19;53.58;101173.25;5062869;28;19944;-61
2023/08/08 09:29:47;;;;;;;;;;;;;;;21.19;53.54;101170.53;5062479;28;19939;-61
2023/08/08 09:32:13;;;;;;;;;;;;;;;21.19;53.64;101169.72;5094763;28;20397;-61
2023/08/08 09:34:41;;;;;;;;;;;;;;;21.19;53.58;101165.13;5063228;28;19913;-61
2023/08/08 09:37:06;;;;;;;;;;;;;;;21.19;53.80;101167.00;5063063;28;20449;-61
2023/08/08 09:39:31;;;;;;;;;;;;;;;21.19;53.45;101181.38;5062720;28;19919;-60
2023/08/08 09:41:56;;;;;;;;;;;;;;;21.19;53.60;101181.38;5062858;28;19927;-61
2023/08/08 09:44:29;;;;;;;;;;;;;;;21.19;53.64;101181.38;5095700;28;19924;-61
2023/08/08 09:46:55;;;;;;;;;;;;;;;21.19;53.69;101186.78;5062467;28;19923;-61
2023/08/08 09:49:20;;;;;;;;;;;;;;;21.20;53.50;101172.25;5062770;28;19951;-59
2023/08/08 09:51:45;;;;;;;;;;;;;;;21.20;53.75;101166.84;5095021;28;19927;-61
2023/08/08 09:54:11;;;;;;;;;;;;;;;21.21;53.82;101175.81;5094704;28;19912;-61
2023/08/08 09:56:36;;;;;;;;;;;;;;;21.21;53.78;101164.97;5095191;28;19928;-59
2023/08/08 09:59:01;;;;;;;;;;;;;;;21.20;53.81;101158.75;5095199;28;19980;-61
2023/08/08 10:01:27;;;;;;;;;;;;;;;20.89;53.78;101107.34;5094570;28;19960;-61
2023/08/08 10:03:52;;;;;;;;;;;;;;;21.20;53.69;101172.25;5094203;28;19952;-61
2023/08/08 10:06:18;;;;;;;;;;;;;;;21.21;53.71;101175.81;5062474;28;19939;-60
2023/08/08 10:08:43;;;;;;;;;;;;;;;21.20;53.59;101164.16;5061841;28;19944;-61
2023/08/08 10:11:10;;;;;;;;;;;;;;;21.21;53.59;101164.97;5063322;28;19924;-61
2023/08/08 10:13:35;;;;;;;;;;;;;;;21.21;53.56;101173.94;5063072;28;19912;-61
2023/08/08 10:16:03;;;;;;;;;;;;;;;21.22;53.48;101185.59;5062495;28;19920;-61
2023/08/08 10:18:29;;;;;;;;;;;;;;;21.23;53.57;101184.56;5064349;28;19917;-61
2023/08/08 10:20:54;;;;;;;;;;;;;;;21.23;53.73;101177.28;5064739;28;20090;-60
2023/08/08 10:23:20;;;;;;;;;;;;;;;21.22;53.56;101172.91;5065875;28;19940;-61
2023/08/08 10:25:45;;;;;;;;;;;;;;;21.22;53.40;101166.66;5065671;28;20031;-57
2023/08/08 10:28:13;;;;;;;;;;;;;;;21.22;53.70;101177.47;5063846;28;19939;-61
2023/08/08 10:30:45;;;;;;;;;;;;;;;21.21;53.59;101168.53;5067309;28;19917;-61
2023/08/08 10:33:17;;;;;;;;;;;;;;;21.22;53.54;101185.59;5080928;28;19947;-61
2023/08/08 10:35:49;;;;;;;;;;;;;;;21.22;53.35;101191.00;5065753;28;19927;-61
2023/08/08 10:38:15;;;;;;;;;;;;;;;21.22;53.57;101188.28;5065763;28;20419;-61
2023/08/08 10:40:42;;;;;;;;;;;;;;;21.23;53.41;101171.03;5066044;28;19925;-61
2023/08/08 10:43:12;;;;;;;;;;;;;;;21.24;53.54;101172.75;5065336;28;20289;-61
2023/08/08 10:45:37;;;;;;;;;;;;;;;21.25;53.12;101187.09;5066420;28;19980;-61
2023/08/08 10:48:09;;;;;;;;;;;;;;;21.23;53.06;101187.25;5098206;28;19912;-60
2023/08/08 10:50:37;;;;;;;;;;;;;;;21.23;53.34;101184.56;5066540;28;19947;-61
2023/08/08 10:53:02;;;;;;;;;;;;;;;21.23;53.18;101180.00;5064806;28;19927;-54
2023/08/08 10:55:31;;;;;;;;;;;;;;;21.24;53.36;101178.16;5098746;28;19971;-60
2023/08/08 10:58:03;;;;;;;;;;;;;;;21.25;53.47;101170.88;5064647;28;19923;-61
2023/08/08 11:00:30;;;;;;;;;;;;;;;21.26;53.20;101169.84;5066103;28;19962;-62
2023/08/08 11:02:55;;;;;;;;;;;;;;;21.26;53.22;101173.41;5097525;28;19952;-62
2023/08/08 11:05:21;;;;;;;;;;;;;;;21.27;53.35;101175.06;5065605;28;19921;-61
2023/08/08 11:07:46;;;;;;;;;;;;;;;21.27;53.11;101171.53;5065582;28;20396;-59
2023/08/08 11:10:12;;;;;;;;;;;;;;;21.27;53.37;101174.22;5064986;28;19913;-61
2023/08/08 11:12:37;;;;;;;;;;;;;;;21.26;53.37;101170.69;5064846;28;19913;-61
2023/08/08 11:15:02;;;;;;;;;;;;;;;21.28;53.13;101162.38;5065151;28;19920;-60
2023/08/08 11:17:27;;;;;;;;;;;;;;;21.28;53.40;101159.69;5065482;28;20803;-59
2023/08/08 11:19:52;;;;;;;;;;;;;;;21.28;53.48;101160.56;5065470;28;19919;-61
2023/08/08 11:22:18;;;;;;;;;;;;;;;21.28;53.18;101160.56;5064930;28;19912;-61
2023/08/08 11:24:43;;;;;;;;;;;;;;;21.30;53.27;101179.31;5063626;28;19927;-61
2023/08/08 11:27:08;;;;;;;;;;;;;;;21.30;53.25;101166.63;5064349;28;19921;-59
2023/08/08 11:29:33;;;;;;;;;;;;;;;21.33;53.45;101166.31;5064585;28;19912;-60
2023/08/08 11:32:02;;;;;;;;;;;;;;;21.34;53.42;101164.44;5065193;28;19923;-61
2023/08/08 11:34:29;;;;;;;;;;;;;;;21.36;53.26;101174.03;5064793;28;19953;-61
2023/08/08 11:36:55;;;;;;;;;;;;;;;21.38;53.36;101184.69;5063146;28;19913;-61
2023/08/08 11:39:20;;;;;;;;;;;;;;;21.39;53.50;101189.06;5063933;28;20445;-61
2023/08/08 11:41:46;;;;;;;;;;;;;;;21.40;53.28;101178.06;5065048;28;19916;-59
2023/08/08 11:44:11;;;;;;;;;;;;;;;21.43;53.09;101171.47;5079481;28;19975;-61
2023/08/08 11:46:46;;;;;;;;;;;;;;;21.44;53.34;101176.69;5064347;28;19916;-61
2023/08/08 11:49:13;;;;;;;;;;;;;;;21.45;53.24;101170.28;5063432;28;19924;-61
2023/08/08 11:51:38;;;;;;;;;;;;;;;21.46;53.32;101180.06;5062936;28;19935;-60
2023/08/08 11:54:06;;;;;;;;;;;;;;;21.46;53.35;101177.38;5064595;28;19913;-61
2023/08/08 11:56:35;;;;;;;;;;;;;;;21.47;53.38;101175.50;5063139;28;19938;-60
2023/08/08 11:59:00;;;;;;;;;;;;;;;21.48;53.31;101174.47;5096873;28;19917;-61
2023/08/08 12:01:26;;;;;;;;;;;;;;;21.49;53.14;101162.63;5065216;28;20486;-61
2023/08/08 12:03:51;;;;;;;;;;;;;;;21.50;53.47;101179.72;5063628;28;19983;-60
2023/08/08 12:06:16;;;;;;;;;;;;;;;21.50;53.42;101169.75;5063902;28;19917;-61
2023/08/08 12:08:42;;;;;;;;;;;;;;;21.52;53.08;101174.97;5063439;28;19912;-59
2023/08/08 12:11:08;;;;;;;;;;;;;;;21.54;53.25;101162.94;5064605;28;19920;-61
2023/08/08 12:13:36;;;;;;;;;;;;;;;21.55;53.35;101172.75;5063550;28;19913;-61
2023/08/08 12:16:01;;;;;;;;;;;;;;;21.57;53.14;101164.44;5060279;28;20642;-61
2023/08/08 12:18:27;;;;;;;;;;;;;;;21.58;52.95;101164.28;5064066;28;19912;-60
2023/08/08 12:20:52;;;;;;;;;;;;;;;21.58;53.13;101169.69;5096634;28;19928;-61
2023/08/08 12:23:17;;;;;;;;;;;;;;;21.59;52.83;101159.72;5063957;28;19972;-61
2023/08/08 12:25:42;;;;;;;;;;;;;;;21.60;52.94;101161.38;5102458;28;19913;-60
2023/08/08 12:28:10;;;;;;;;;;;;;;;21.60;53.02;101166.78;5062914;28;20404;-62